createdAt,value
2023-02-02T00:01:31.886Z,7.46
2023-02-02T00:04:00.023Z,7.36
2023-02-02T00:06:30.476Z,7.59
2023-02-02T00:09:01.208Z,7.26
2023-02-02T00:11:30.359Z,7.42
2023-02-02T00:13:58.684Z,7.43
2023-02-02T00:16:41.770Z,7.47
2023-02-02T00:19:14.298Z,7.36
2023-02-02T00:21:42.713Z,7.47
2023-02-02T00:24:14.812Z,7.28
2023-02-02T00:26:45.359Z,7.50
2023-02-02T00:29:17.533Z,7.38
2023-02-02T00:31:45.410Z,7.36
2023-02-02T00:34:13.980Z,7.45
2023-02-02T00:36:42.368Z,7.44
2023-02-02T00:39:16.870Z,7.42
2023-02-02T00:41:47.253Z,7.32
2023-02-02T00:44:34.103Z,7.29
2023-02-02T00:47:02.707Z,7.47
2023-02-02T00:49:30.467Z,7.45
2023-02-02T00:51:59.124Z,7.40
2023-02-02T00:54:26.987Z,7.44
2023-02-02T00:56:59.504Z,7.51
2023-02-02T00:59:27.313Z,7.37
2023-02-02T01:01:56.192Z,7.26
2023-02-02T01:04:24.014Z,7.44
2023-02-02T01:06:51.887Z,7.32
2023-02-02T01:09:19.694Z,7.31
2023-02-02T01:11:47.438Z,7.43
2023-02-02T01:14:17.560Z,7.40
2023-02-02T01:16:45.484Z,7.28
2023-02-02T01:19:14.736Z,7.57
2023-02-02T01:21:45.162Z,7.44
2023-02-02T01:24:16.869Z,7.42
2023-02-02T01:26:44.987Z,7.45
2023-02-02T01:29:13.220Z,7.47
2023-02-02T01:31:43.051Z,7.32
2023-02-02T01:34:11.258Z,7.31
2023-02-02T01:36:39.407Z,7.51
2023-02-02T01:39:08.502Z,7.56
2023-02-02T01:41:36.744Z,7.40
2023-02-02T01:44:08.630Z,7.46
2023-02-02T01:46:37.918Z,7.45
2023-02-02T01:49:16.181Z,7.28
2023-02-02T01:51:50.965Z,7.42
2023-02-02T01:54:24.148Z,7.53
2023-02-02T01:56:56.561Z,7.40
2023-02-02T01:59:28.293Z,7.39
2023-02-02T02:01:57.373Z,7.29
2023-02-02T02:04:33.314Z,7.41
2023-02-02T02:07:03.964Z,7.62
2023-02-02T02:09:32.584Z,7.42
2023-02-02T02:12:04.627Z,7.25
2023-02-02T02:14:51.438Z,7.36
2023-02-02T02:17:33.419Z,7.31
2023-02-02T02:20:54.143Z,7.25
2023-02-02T02:24:07.880Z,7.31
2023-02-02T02:27:03.252Z,7.46
2023-02-02T02:29:50.150Z,7.53
2023-02-02T02:32:36.128Z,7.41
2023-02-02T02:35:10.691Z,7.40
2023-02-02T02:37:47.062Z,7.55
2023-02-02T02:40:26.612Z,7.27
2023-02-02T02:42:59.618Z,7.35
2023-02-02T02:45:29.728Z,7.35
2023-02-02T02:48:01.555Z,7.22
2023-02-02T02:50:34.611Z,7.29
2023-02-02T02:53:06.986Z,7.24
2023-02-02T02:55:45.238Z,7.34
2023-02-02T02:58:17.657Z,7.34
2023-02-02T03:00:59.153Z,7.21
2023-02-02T03:03:53.261Z,7.39
2023-02-02T03:06:24.797Z,7.50
2023-02-02T03:09:00.693Z,7.53
2023-02-02T03:11:30.611Z,7.33
2023-02-02T03:13:58.838Z,7.35
2023-02-02T03:16:27.724Z,7.28
2023-02-02T03:18:57.894Z,7.30
2023-02-02T03:21:25.884Z,7.34
2023-02-02T03:23:54.055Z,7.31
2023-02-02T03:26:22.197Z,7.01
2023-02-02T03:28:50.884Z,7.30
2023-02-02T03:31:19.902Z,7.26
2023-02-02T03:33:47.901Z,7.51
2023-02-02T03:36:17.128Z,7.35
2023-02-02T03:38:44.845Z,7.33
2023-02-02T03:41:12.609Z,7.35
2023-02-02T03:43:40.808Z,7.29
2023-02-02T03:46:08.672Z,7.28
2023-02-02T03:48:39.386Z,7.56
2023-02-02T03:51:08.752Z,7.40
2023-02-02T03:53:40.364Z,7.37
2023-02-02T03:56:08.637Z,7.44
2023-02-02T03:58:39.577Z,7.42
2023-02-02T04:01:09.609Z,7.31
2023-02-02T04:03:40.187Z,7.38
2023-02-02T04:06:08.021Z,7.30
2023-02-02T04:08:36.152Z,7.32
2023-02-02T04:11:05.295Z,7.28
2023-02-02T04:13:33.521Z,7.16
2023-02-02T04:16:02.082Z,6.94
2023-02-02T04:18:30.372Z,7.44
2023-02-02T04:21:00.906Z,7.46
2023-02-02T04:23:29.687Z,7.62
2023-02-02T04:25:58.094Z,7.63
2023-02-02T04:28:29.913Z,7.41
2023-02-02T04:30:58.551Z,7.44
2023-02-02T04:33:28.019Z,7.46
2023-02-02T04:35:56.579Z,7.60
2023-02-02T04:38:25.752Z,7.52
2023-02-02T04:40:54.432Z,7.51
2023-02-02T04:43:22.291Z,7.58
2023-02-02T04:45:58.082Z,7.65
2023-02-02T04:48:25.897Z,7.63
2023-02-02T04:51:00.946Z,7.54
2023-02-02T04:53:29.280Z,7.50
2023-02-02T04:57:36.431Z,7.65
2023-02-02T05:00:04.602Z,7.44
2023-02-02T05:02:32.346Z,7.51
2023-02-02T05:05:00.017Z,7.37
2023-02-02T05:07:27.877Z,7.52
2023-02-02T05:09:55.773Z,7.61
2023-02-02T05:12:23.631Z,7.63
2023-02-02T05:14:52.740Z,7.62
2023-02-02T05:17:20.571Z,7.65
2023-02-02T05:19:48.295Z,7.67
2023-02-02T05:22:17.751Z,7.63
2023-02-02T05:24:46.652Z,7.78
2023-02-02T05:27:14.420Z,7.51
2023-02-02T05:29:42.082Z,7.62
2023-02-02T05:32:11.110Z,7.60
2023-02-02T05:34:38.898Z,7.57
2023-02-02T05:37:06.652Z,7.63
2023-02-02T05:39:34.550Z,7.63
2023-02-02T05:42:02.406Z,7.79
2023-02-02T05:44:30.284Z,7.77
2023-02-02T05:46:58.035Z,7.74
2023-02-02T05:49:27.344Z,7.71
2023-02-02T05:51:57.861Z,7.64
2023-02-02T05:54:25.944Z,7.72
2023-02-02T05:56:55.868Z,7.56
2023-02-02T05:59:24.257Z,7.82
2023-02-02T06:01:52.562Z,7.54
2023-02-02T06:04:20.294Z,7.56
2023-02-02T06:06:49.331Z,7.61
2023-02-02T06:09:17.077Z,7.67
2023-02-02T06:11:45.261Z,7.51
2023-02-02T06:14:13.142Z,7.73
2023-02-02T06:16:42.951Z,7.70
2023-02-02T06:19:10.720Z,7.77
2023-02-02T06:21:38.518Z,7.72
2023-02-02T06:24:08.499Z,7.72
2023-02-02T06:26:36.316Z,7.72
2023-02-02T06:29:04.558Z,7.73
2023-02-02T06:31:33.890Z,7.67
2023-02-02T06:34:01.729Z,7.76
2023-02-02T06:36:29.669Z,7.76
2023-02-02T06:38:58.641Z,7.70
2023-02-02T06:41:27.810Z,7.69
2023-02-02T06:43:55.554Z,7.64
2023-02-02T06:46:23.686Z,7.59
2023-02-02T06:48:51.406Z,7.56
2023-02-02T06:51:19.489Z,7.78
2023-02-02T06:53:49.270Z,7.77
2023-02-02T06:56:17.425Z,7.74
2023-02-02T06:58:46.508Z,7.69
2023-02-02T07:01:15.225Z,7.75
2023-02-02T07:03:42.995Z,7.67
2023-02-02T07:06:15.171Z,7.61
2023-02-02T07:08:43.751Z,7.58
2023-02-02T07:11:15.255Z,7.59
2023-02-02T07:13:46.249Z,7.66
2023-02-02T07:16:15.024Z,7.65
2023-02-02T07:18:43.955Z,7.75
2023-02-02T07:21:18.694Z,7.78
2023-02-02T07:23:46.813Z,7.76
2023-02-02T07:26:18.257Z,7.71
2023-02-02T07:28:47.813Z,7.55
2023-02-02T07:31:17.798Z,7.80
2023-02-02T07:33:47.044Z,7.53
2023-02-02T07:36:20.387Z,7.74
2023-02-02T07:38:53.801Z,7.79
2023-02-02T07:41:22.389Z,7.69
2023-02-02T07:43:53.151Z,7.73
2023-02-02T07:46:22.031Z,7.84
2023-02-02T07:48:50.253Z,7.65
2023-02-02T07:51:19.307Z,7.69
2023-02-02T07:53:48.062Z,7.77
2023-02-02T07:56:19.281Z,7.75
2023-02-02T07:58:47.677Z,7.84
2023-02-02T08:01:17.741Z,7.76
2023-02-02T08:03:45.692Z,7.90
2023-02-02T08:06:16.409Z,7.91
2023-02-02T08:08:44.228Z,8.07
2023-02-02T08:11:13.546Z,8.06
2023-02-02T08:13:42.103Z,8.14
2023-02-02T08:16:10.767Z,8.02
2023-02-02T08:18:40.330Z,8.16
2023-02-02T08:21:09.607Z,8.02
2023-02-02T08:23:38.182Z,8.14
2023-02-02T08:26:11.643Z,8.30
2023-02-02T08:28:40.184Z,8.28
2023-02-02T08:31:10.448Z,8.15
2023-02-02T08:33:39.537Z,8.20
2023-02-02T08:36:12.992Z,8.36
2023-02-02T08:38:40.784Z,8.54
2023-02-02T08:41:10.210Z,8.43
2023-02-02T08:43:38.294Z,8.53
2023-02-02T08:46:07.305Z,8.50
2023-02-02T08:48:36.312Z,8.25
2023-02-02T08:51:04.958Z,8.27
2023-02-02T08:53:34.736Z,8.26
2023-02-02T08:56:04.368Z,8.25
2023-02-02T08:58:33.816Z,8.20
2023-02-02T09:01:06.304Z,8.31
2023-02-02T09:03:34.081Z,8.25
2023-02-02T09:06:06.187Z,8.26
2023-02-02T09:08:35.509Z,8.19
2023-02-02T09:11:08.765Z,8.04
2023-02-02T09:13:36.907Z,8.17
2023-02-02T09:16:09.537Z,8.11
2023-02-02T09:18:39.736Z,8.31
2023-02-02T09:21:09.563Z,8.01
2023-02-02T09:23:40.751Z,8.10
2023-02-02T09:26:13.169Z,8.10
2023-02-02T09:28:42.263Z,8.11
2023-02-02T09:31:10.798Z,8.12
2023-02-02T09:33:39.248Z,8.20
2023-02-02T09:36:08.471Z,8.08
2023-02-02T09:38:37.925Z,8.08
2023-02-02T09:41:29.209Z,8.20
2023-02-02T09:44:07.078Z,7.97
2023-02-02T09:46:47.580Z,7.99
2023-02-02T09:49:23.312Z,8.01
2023-02-02T09:51:57.270Z,7.95
2023-02-02T09:54:34.316Z,8.17
2023-02-02T09:57:05.537Z,8.14
2023-02-02T09:59:38.043Z,8.09
2023-02-02T10:02:14.691Z,8.14
2023-02-02T10:04:46.953Z,8.18
2023-02-02T10:07:18.991Z,8.07
2023-02-02T10:09:52.175Z,8.22
2023-02-02T10:12:32.390Z,8.37
2023-02-02T10:15:06.410Z,8.07
2023-02-02T10:17:41.913Z,8.09
2023-02-02T10:20:22.152Z,7.96
2023-02-02T10:22:51.619Z,8.09
2023-02-02T10:25:25.698Z,8.40
2023-02-02T10:28:01.933Z,8.38
2023-02-02T10:30:45.441Z,8.27
2023-02-02T10:33:21.538Z,8.38
2023-02-02T10:35:58.148Z,8.39
2023-02-02T10:38:37.851Z,8.19
2023-02-02T10:41:15.580Z,8.44
2023-02-02T10:44:14.986Z,8.14
2023-02-02T10:46:47.717Z,8.09
2023-02-02T10:49:22.621Z,8.08
2023-02-02T10:51:55.400Z,8.29
2023-02-02T10:54:54.983Z,8.24
2023-02-02T10:57:35.358Z,8.20
2023-02-02T11:00:12.268Z,8.22
2023-02-02T11:02:40.143Z,8.28
2023-02-02T11:05:38.525Z,8.51
2023-02-02T11:08:14.657Z,8.51
2023-02-02T11:10:43.361Z,8.58
2023-02-02T11:13:17.166Z,8.67
2023-02-02T11:15:45.012Z,8.40
2023-02-02T11:18:28.220Z,8.72
2023-02-02T11:20:56.728Z,8.50
2023-02-02T11:23:28.287Z,8.57
2023-02-02T11:26:00.700Z,8.66
2023-02-02T11:28:35.401Z,8.67
2023-02-02T11:31:03.617Z,8.54
2023-02-02T11:33:33.480Z,8.75
2023-02-02T11:36:03.075Z,8.74
2023-02-02T11:38:31.165Z,8.78
2023-02-02T11:41:04.410Z,8.72
2023-02-02T11:43:41.248Z,8.62
2023-02-02T11:46:19.704Z,8.68
2023-02-02T11:48:51.037Z,8.71
2023-02-02T11:51:24.134Z,8.60
2023-02-02T11:54:04.169Z,8.64
2023-02-02T11:56:32.746Z,8.55
2023-02-02T11:59:04.095Z,8.72
2023-02-02T12:01:34.881Z,8.79
2023-02-02T12:04:05.019Z,8.55
2023-02-02T12:06:36.480Z,8.48
2023-02-02T12:09:13.079Z,8.38
2023-02-02T12:11:55.763Z,8.63
2023-02-02T12:14:35.415Z,8.45
2023-02-02T12:17:17.159Z,8.82
2023-02-02T12:20:02.189Z,8.38
2023-02-02T12:22:45.571Z,8.37
2023-02-02T12:25:35.580Z,8.22
2023-02-02T12:28:16.340Z,8.20
2023-02-02T12:30:56.504Z,8.38
2023-02-02T12:33:35.829Z,8.47
2023-02-02T12:36:27.686Z,8.33
2023-02-02T12:39:10.068Z,8.45
2023-02-02T12:42:10.103Z,8.02
2023-02-02T12:44:50.983Z,7.83
2023-02-02T12:47:28.114Z,8.07
2023-02-02T12:50:05.380Z,8.06
2023-02-02T12:52:50.361Z,8.04
2023-02-02T12:55:25.217Z,7.81
2023-02-02T12:58:07.528Z,7.89
2023-02-02T13:00:47.305Z,7.87
2023-02-02T13:03:29.444Z,8.06
2023-02-02T13:06:10.588Z,8.12
2023-02-02T13:08:46.831Z,7.88
2023-02-02T13:11:32.988Z,8.07
2023-02-02T13:14:08.339Z,8.00
2023-02-02T13:16:41.063Z,7.84
2023-02-02T13:19:14.809Z,7.91
2023-02-02T13:21:44.996Z,7.87
2023-02-02T13:24:19.350Z,7.79
2023-02-02T13:26:49.830Z,8.07
2023-02-02T13:29:31.193Z,8.02
2023-02-02T13:32:04.758Z,7.98
2023-02-02T13:34:43.576Z,8.02
2023-02-02T13:37:19.026Z,8.14
2023-02-02T13:39:49.793Z,8.16
2023-02-02T13:42:27.090Z,7.85
2023-02-02T13:44:59.379Z,7.96
2023-02-02T13:47:35.725Z,8.22
2023-02-02T13:50:11.270Z,8.21
2023-02-02T13:52:55.968Z,8.07
2023-02-02T13:55:41.999Z,8.37
2023-02-02T13:58:24.019Z,8.32
2023-02-02T14:00:56.241Z,8.26
2023-02-02T14:03:39.006Z,8.11
2023-02-02T14:06:14.734Z,8.22
2023-02-02T14:08:49.016Z,8.12
2023-02-02T14:11:22.184Z,8.26
2023-02-02T14:14:10.888Z,8.26
2023-02-02T14:16:50.127Z,8.38
2023-02-02T14:19:34.565Z,8.38
2023-02-02T14:22:06.720Z,8.39
2023-02-02T14:24:46.822Z,8.10
2023-02-02T14:28:06.419Z,8.22
2023-02-02T14:30:36.373Z,8.34
2023-02-02T14:33:25.935Z,8.29
2023-02-02T14:36:02.619Z,8.30
2023-02-02T14:39:01.118Z,8.42
2023-02-02T14:42:07.401Z,8.30
2023-02-02T14:44:37.921Z,8.51
2023-02-02T14:47:41.230Z,8.46
2023-02-02T14:50:15.082Z,8.63
2023-02-02T14:52:42.943Z,8.59
2023-02-02T14:55:21.134Z,8.58
2023-02-02T14:57:56.756Z,8.26
2023-02-02T15:00:28.423Z,8.36
2023-02-02T15:03:34.967Z,8.43
2023-02-02T15:06:08.201Z,8.22
2023-02-02T15:08:36.267Z,8.36
2023-02-02T15:11:25.448Z,8.28
2023-02-02T15:14:02.258Z,8.39
2023-02-02T15:16:32.681Z,8.34
2023-02-02T15:19:08.006Z,8.34
2023-02-02T15:21:40.415Z,8.46
2023-02-02T15:24:20.521Z,8.47
2023-02-02T15:26:50.766Z,8.49
2023-02-02T15:29:23.388Z,8.54
2023-02-02T15:31:55.255Z,8.41
2023-02-02T15:34:27.604Z,8.31
2023-02-02T15:36:59.071Z,8.53
2023-02-02T15:39:31.267Z,8.44
2023-02-02T15:42:20.663Z,8.39
2023-02-02T15:44:48.447Z,8.29
2023-02-02T15:47:20.102Z,8.26
2023-02-02T15:49:50.811Z,8.34
2023-02-02T15:52:25.219Z,8.27
2023-02-02T15:54:54.803Z,8.43
2023-02-02T15:57:28.932Z,8.36
2023-02-02T15:59:57.396Z,8.46
2023-02-02T16:02:35.080Z,8.37
2023-02-02T16:05:02.853Z,8.35
2023-02-02T16:07:33.792Z,8.35
2023-02-02T16:10:07.518Z,8.24
2023-02-02T16:12:40.996Z,8.23
2023-02-02T16:15:20.015Z,8.36
2023-02-02T16:17:59.227Z,8.48
2023-02-02T16:20:28.967Z,8.39
2023-02-02T16:23:01.924Z,8.36
2023-02-02T16:25:38.420Z,8.31
2023-02-02T16:28:07.746Z,8.32
2023-02-02T16:30:38.899Z,8.24
2023-02-02T16:33:28.053Z,8.22
2023-02-02T16:35:56.296Z,8.36
2023-02-02T16:38:26.437Z,8.46
2023-02-02T16:41:06.041Z,8.39
2023-02-02T16:43:37.966Z,8.16
2023-02-02T16:46:08.846Z,8.31
2023-02-02T16:48:38.098Z,8.37
2023-02-02T16:51:22.784Z,8.32
2023-02-02T16:53:59.132Z,8.25
2023-02-02T16:56:31.403Z,8.31
2023-02-02T16:59:05.305Z,8.36
2023-02-02T17:01:37.874Z,8.45
2023-02-02T17:04:07.421Z,8.22
2023-02-02T17:06:50.415Z,8.30
2023-02-02T17:09:34.385Z,8.26
2023-02-02T17:12:09.299Z,8.20
2023-02-02T17:14:52.476Z,8.23
2023-02-02T17:17:22.596Z,8.10
2023-02-02T17:19:50.736Z,8.11
2023-02-02T17:22:21.800Z,7.96
2023-02-02T17:24:51.742Z,8.10
2023-02-02T17:27:26.461Z,8.19
2023-02-02T17:29:56.788Z,8.05
2023-02-02T17:32:24.984Z,8.05
2023-02-02T17:34:52.771Z,8.04
2023-02-02T17:37:20.624Z,7.95
2023-02-02T17:39:50.426Z,7.97
2023-02-02T17:42:25.123Z,8.11
2023-02-02T17:44:52.955Z,8.01
2023-02-02T17:47:24.129Z,7.92
2023-02-02T17:49:51.962Z,7.90
2023-02-02T17:52:19.753Z,7.91
2023-02-02T17:54:50.079Z,7.97
2023-02-02T17:57:17.884Z,7.81
2023-02-02T17:59:45.751Z,7.74
2023-02-02T18:02:16.220Z,8.00
2023-02-02T18:04:45.829Z,7.86
2023-02-02T18:07:13.913Z,7.92
2023-02-02T18:09:41.798Z,8.02
2023-02-02T18:12:09.691Z,7.92
2023-02-02T18:14:38.125Z,7.97
2023-02-02T18:17:08.174Z,7.92
2023-02-02T18:19:36.138Z,7.88
2023-02-02T18:22:06.248Z,8.06
2023-02-02T18:24:34.083Z,8.05
2023-02-02T18:27:01.876Z,8.12
2023-02-02T18:29:32.011Z,7.90
2023-02-02T18:32:00.406Z,7.94
2023-02-02T18:34:30.163Z,7.97
2023-02-02T18:36:58.063Z,7.87
2023-02-02T18:39:27.501Z,7.88
2023-02-02T18:41:55.397Z,7.76
2023-02-02T18:44:26.688Z,7.99
2023-02-02T18:46:54.527Z,8.10
2023-02-02T18:49:22.493Z,8.16
2023-02-02T18:51:50.305Z,8.04
2023-02-02T18:54:19.318Z,7.92
2023-02-02T18:56:48.447Z,8.13
2023-02-02T18:59:16.412Z,8.04
2023-02-02T19:01:44.217Z,7.84
2023-02-02T19:04:12.153Z,7.90
2023-02-02T19:06:59.992Z,7.93
2023-02-02T19:09:27.775Z,7.98
2023-02-02T19:11:57.390Z,7.85
2023-02-02T19:14:29.577Z,7.79
2023-02-02T19:17:01.464Z,8.01
2023-02-02T19:19:33.446Z,8.17
2023-02-02T19:22:02.683Z,8.04
2023-02-02T19:24:35.738Z,7.85
2023-02-02T19:27:15.704Z,8.01
2023-02-02T19:29:43.602Z,8.01
2023-02-02T19:32:18.211Z,7.93
2023-02-02T19:34:46.530Z,8.05
2023-02-02T19:37:23.569Z,7.91
2023-02-02T19:39:51.690Z,7.93
2023-02-02T19:42:20.961Z,8.04
2023-02-02T19:44:51.007Z,7.98
2023-02-02T19:47:27.838Z,8.08
2023-02-02T19:49:58.145Z,7.95
2023-02-02T19:52:27.347Z,8.05
2023-02-02T19:54:55.184Z,8.04
2023-02-02T19:57:33.701Z,8.05
2023-02-02T20:00:03.287Z,7.85
2023-02-02T20:02:44.782Z,8.03
2023-02-02T20:05:19.778Z,8.07
2023-02-02T20:07:48.382Z,8.00
2023-02-02T20:10:22.519Z,7.92
2023-02-02T20:12:52.116Z,7.80
2023-02-02T20:15:31.408Z,7.99
2023-02-02T20:18:00.930Z,7.77
2023-02-02T20:20:30.755Z,7.74
2023-02-02T20:22:58.833Z,7.96
2023-02-02T20:25:26.772Z,7.85
2023-02-02T20:27:58.846Z,7.85
2023-02-02T20:30:30.874Z,7.89
2023-02-02T20:33:01.570Z,7.75
2023-02-02T20:35:37.296Z,7.83
2023-02-02T20:38:21.531Z,7.72
2023-02-02T20:40:49.303Z,7.86
2023-02-02T20:43:18.485Z,7.93
2023-02-02T20:45:46.325Z,7.96
2023-02-02T20:48:15.303Z,7.95
2023-02-02T20:50:43.838Z,7.81
2023-02-02T20:53:14.762Z,7.85
2023-02-02T20:55:42.577Z,7.73
2023-02-02T20:58:13.603Z,7.62
2023-02-02T21:00:42.832Z,7.69
2023-02-02T21:03:10.662Z,7.63
2023-02-02T21:05:38.466Z,7.42
2023-02-02T21:08:07.066Z,7.63
2023-02-02T21:10:34.957Z,7.62
2023-02-02T21:13:02.747Z,7.63
2023-02-02T21:15:30.483Z,7.66
2023-02-02T21:18:01.965Z,7.64
2023-02-02T21:20:29.907Z,7.62
2023-02-02T21:22:57.708Z,7.73
2023-02-02T21:25:25.470Z,7.61
2023-02-02T21:28:00.272Z,7.45
2023-02-02T21:30:28.740Z,7.50
2023-02-02T21:32:56.794Z,7.53
2023-02-02T21:35:28.185Z,7.39
2023-02-02T21:37:58.585Z,7.43
2023-02-02T21:40:29.733Z,7.63
2023-02-02T21:43:00.606Z,7.73
2023-02-02T21:45:35.299Z,7.56
2023-02-02T21:48:06.312Z,7.62
2023-02-02T21:50:38.043Z,7.80
2023-02-02T21:53:18.996Z,7.61
2023-02-02T21:55:48.383Z,7.56
2023-02-02T21:58:20.871Z,7.64
2023-02-02T22:00:48.871Z,7.70
2023-02-02T22:03:46.431Z,7.84
2023-02-02T22:06:25.092Z,7.73
2023-02-02T22:08:57.860Z,7.82
2023-02-02T22:11:31.174Z,7.79
2023-02-02T22:14:03.536Z,7.72
2023-02-02T22:16:40.283Z,7.65
2023-02-02T22:19:24.933Z,7.75
2023-02-02T22:22:10.960Z,7.75
2023-02-02T22:24:38.714Z,7.67
2023-02-02T22:27:17.978Z,7.65
2023-02-02T22:29:46.177Z,7.84
2023-02-02T22:32:13.964Z,7.91
2023-02-02T22:34:41.672Z,7.95
2023-02-02T22:37:10.740Z,7.80
2023-02-02T22:39:42.697Z,7.81
2023-02-02T22:42:10.916Z,7.78
2023-02-02T22:44:45.500Z,7.81
2023-02-02T22:47:14.193Z,7.91
2023-02-02T22:49:42.007Z,7.84
2023-02-02T22:52:11.150Z,7.73
2023-02-02T22:54:38.864Z,7.76
2023-02-02T22:57:06.597Z,7.83
2023-02-02T22:59:34.393Z,7.82
2023-02-02T23:02:02.172Z,7.66
2023-02-02T23:04:29.936Z,7.91
2023-02-02T23:06:57.734Z,7.82
2023-02-02T23:09:26.924Z,7.74
2023-02-02T23:11:54.707Z,7.76
2023-02-02T23:14:22.499Z,7.57
2023-02-02T23:16:50.276Z,7.54
2023-02-02T23:19:20.159Z,7.59
2023-02-02T23:21:50.237Z,7.78
2023-02-02T23:24:17.987Z,7.62
2023-02-02T23:26:49.685Z,7.64
2023-02-02T23:29:17.436Z,7.72
2023-02-02T23:31:45.282Z,7.58
2023-02-02T23:34:13.072Z,7.70
2023-02-02T23:36:40.903Z,7.68
2023-02-02T23:39:08.871Z,7.42
2023-02-02T23:41:38.796Z,7.49
2023-02-02T23:44:08.003Z,7.41
2023-02-02T23:46:37.522Z,7.43
2023-02-02T23:49:05.609Z,7.38
2023-02-02T23:51:33.441Z,7.39
2023-02-02T23:54:03.463Z,7.37
2023-02-02T23:56:31.628Z,7.38
2023-02-02T23:58:59.436Z,7.45
